createdAt,value
2023-06-28T00:01:15.042Z,97708.73
2023-06-28T00:04:01.578Z,97710.34
2023-06-28T00:06:28.598Z,97713.24
2023-06-28T00:08:55.199Z,97714.83
2023-06-28T00:11:21.792Z,97717.52
2023-06-28T00:13:48.444Z,97718.25
2023-06-28T00:16:15.511Z,97715.48
2023-06-28T00:18:43.795Z,97715.21
2023-06-28T00:21:13.933Z,97713.31
2023-06-28T00:23:41.551Z,97712.24
2023-06-28T00:26:08.190Z,97710.65
2023-06-28T00:28:34.892Z,97709.21
2023-06-28T00:31:02.012Z,97712.65
2023-06-28T00:33:28.708Z,97707.64
2023-06-28T00:35:55.294Z,97712.23
2023-06-28T00:38:21.911Z,97713.71
2023-06-28T00:40:48.897Z,97715.42
2023-06-28T00:43:15.489Z,97708.48
2023-06-28T00:45:43.200Z,97709.34
2023-06-28T00:48:10.435Z,97706.08
2023-06-28T00:50:37.980Z,97707.44
2023-06-28T00:53:05.455Z,97706.80
2023-06-28T00:55:32.082Z,97710.96
2023-06-28T00:57:58.947Z,97706.35
2023-06-28T01:00:27.075Z,97706.45
2023-06-28T01:02:53.893Z,97711.27
2023-06-28T01:05:20.994Z,97711.65
2023-06-28T01:07:52.407Z,97710.17
2023-06-28T01:10:20.346Z,97709.55
2023-06-28T01:12:48.151Z,97704.11
2023-06-28T01:15:15.232Z,97700.69
2023-06-28T01:17:42.187Z,97698.22
2023-06-28T01:20:09.551Z,97699.86
2023-06-28T01:22:41.018Z,97698.28
2023-06-28T01:25:10.551Z,97695.85
2023-06-28T01:27:40.764Z,97695.80
2023-06-28T01:30:11.558Z,97694.38
2023-06-28T01:32:38.247Z,97692.48
2023-06-28T01:35:05.993Z,97691.52
2023-06-28T01:37:33.168Z,97692.95
2023-06-28T01:40:01.050Z,97696.45
2023-06-28T01:42:28.184Z,97693.61
2023-06-28T01:44:54.851Z,97689.30
2023-06-28T01:47:21.560Z,97693.67
2023-06-28T01:49:48.544Z,97694.42
2023-06-28T01:52:15.900Z,97691.66
2023-06-28T01:54:42.499Z,97696.52
2023-06-28T01:57:09.043Z,97690.91
2023-06-28T01:59:36.433Z,97691.48
2023-06-28T02:02:03.818Z,97690.16
2023-06-28T02:04:32.750Z,97686.95
2023-06-28T02:07:00.117Z,97691.17
2023-06-28T02:09:26.790Z,97690.98
2023-06-28T02:11:53.369Z,97687.02
2023-06-28T02:14:19.918Z,97685.02
2023-06-28T02:16:46.544Z,97686.89
2023-06-28T02:19:16.960Z,97689.55
2023-06-28T02:21:44.571Z,97692.88
2023-06-28T02:24:11.140Z,97696.25
2023-06-28T02:26:39.379Z,97701.44
2023-06-28T02:29:06.055Z,97702.83
2023-06-28T02:31:32.696Z,97697.69
2023-06-28T02:33:59.385Z,97697.66
2023-06-28T02:36:25.950Z,97694.10
2023-06-28T02:38:52.893Z,97696.62
2023-06-28T02:41:19.488Z,97694.49
2023-06-28T02:43:46.105Z,97691.32
2023-06-28T02:46:13.203Z,97691.02
2023-06-28T02:48:40.001Z,97689.80
2023-06-28T02:51:06.625Z,97698.05
2023-06-28T02:53:33.310Z,97702.48
2023-06-28T02:55:59.969Z,97699.39
2023-06-28T02:58:55.518Z,97696.25
2023-06-28T03:01:22.460Z,97700.77
2023-06-28T03:03:49.242Z,97701.39
2023-06-28T03:06:16.033Z,97698.27
2023-06-28T03:08:42.660Z,97697.13
2023-06-28T03:11:09.277Z,97691.88
2023-06-28T03:13:35.892Z,97689.54
2023-06-28T03:16:02.516Z,97692.92
2023-06-28T03:18:29.540Z,97690.64
2023-06-28T03:20:56.838Z,97686.36
2023-06-28T03:23:23.391Z,97688.48
2023-06-28T03:25:50.291Z,97691.02
2023-06-28T03:28:17.056Z,97690.55
2023-06-28T03:30:43.834Z,97694.87
2023-06-28T03:33:10.764Z,97691.36
2023-06-28T03:35:37.387Z,97691.17
2023-06-28T03:38:04.102Z,97691.04
2023-06-28T03:40:30.758Z,97691.95
2023-06-28T03:42:57.445Z,97692.08
2023-06-28T03:45:24.074Z,97691.34
2023-06-28T03:47:50.745Z,97694.79
2023-06-28T03:50:17.480Z,97696.77
2023-06-28T03:52:44.053Z,97696.62
2023-06-28T03:55:12.638Z,97698.48
2023-06-28T03:57:40.690Z,97695.26
2023-06-28T04:00:10.741Z,97694.84
2023-06-28T04:02:41.455Z,97698.70
2023-06-28T04:05:08.961Z,97703.20
2023-06-28T04:07:35.707Z,97704.02
2023-06-28T04:10:03.850Z,97708.20
2023-06-28T04:12:30.514Z,97708.45
2023-06-28T04:14:57.128Z,97710.48
2023-06-28T04:17:23.770Z,97713.20
2023-06-28T04:19:50.467Z,97708.94
2023-06-28T04:22:17.201Z,97707.87
2023-06-28T04:24:43.828Z,97712.07
2023-06-28T04:27:10.441Z,97709.89
2023-06-28T04:29:36.989Z,97708.55
2023-06-28T04:32:19.819Z,97710.98
2023-06-28T04:34:46.671Z,97711.91
2023-06-28T04:37:16.068Z,97713.83
2023-06-28T04:39:44.445Z,97714.66
2023-06-28T04:42:14.971Z,97707.27
2023-06-28T04:44:47.585Z,97707.13
2023-06-28T04:47:17.885Z,97709.49
2023-06-28T04:49:49.478Z,97705.67
2023-06-28T04:52:19.450Z,97709.70
2023-06-28T04:54:46.801Z,97708.70
2023-06-28T04:57:14.848Z,97713.09
2023-06-28T04:59:42.213Z,97708.69
2023-06-28T05:02:09.879Z,97707.86
2023-06-28T05:04:40.427Z,97708.21
2023-06-28T05:07:09.714Z,97709.29
2023-06-28T05:09:38.225Z,97715.02
2023-06-28T05:12:05.761Z,97705.93
2023-06-28T05:14:32.563Z,97706.61
2023-06-28T05:16:59.273Z,97705.02
2023-06-28T05:19:26.370Z,97706.39
2023-06-28T05:21:54.575Z,97702.36
2023-06-28T05:24:21.685Z,97703.95
2023-06-28T05:26:48.378Z,97698.81
2023-06-28T05:29:14.971Z,97693.47
2023-06-28T05:31:42.864Z,97692.80
2023-06-28T05:34:11.633Z,97693.13
2023-06-28T05:36:38.328Z,97695.39
2023-06-28T05:39:04.981Z,97699.85
2023-06-28T05:41:31.577Z,97690.84
2023-06-28T05:43:58.161Z,97688.52
2023-06-28T05:46:24.688Z,97695.30
2023-06-28T05:48:51.465Z,97688.80
2023-06-28T05:51:18.146Z,97689.67
2023-06-28T05:53:44.926Z,97693.83
2023-06-28T05:56:11.619Z,97691.19
2023-06-28T05:58:38.300Z,97695.41
2023-06-28T06:01:04.869Z,97698.29
2023-06-28T06:03:31.606Z,97697.19
2023-06-28T06:05:58.633Z,97697.63
2023-06-28T06:08:25.232Z,97705.48
2023-06-28T06:10:51.808Z,97696.95
2023-06-28T06:13:38.927Z,97697.71
2023-06-28T06:16:05.553Z,97697.62
2023-06-28T06:18:32.180Z,97698.62
2023-06-28T06:20:58.975Z,97689.77
2023-06-28T06:23:25.713Z,97691.12
2023-06-28T06:25:52.837Z,97687.45
2023-06-28T06:28:19.427Z,97687.91
2023-06-28T06:30:46.457Z,97686.73
2023-06-28T06:33:13.587Z,97688.27
2023-06-28T06:35:40.240Z,97689.44
2023-06-28T06:38:06.806Z,97691.20
2023-06-28T06:40:34.297Z,97695.65
2023-06-28T06:43:00.839Z,97692.70
2023-06-28T06:45:27.411Z,97696.08
2023-06-28T06:47:54.142Z,97690.44
2023-06-28T06:50:20.839Z,97687.34
2023-06-28T06:52:47.459Z,97687.96
2023-06-28T06:55:14.221Z,97681.18
2023-06-28T06:57:40.921Z,97683.25
2023-06-28T07:00:09.424Z,97677.45
2023-06-28T07:02:36.411Z,97678.23
2023-06-28T07:05:03.178Z,97683.29
2023-06-28T07:07:29.849Z,97680.38
2023-06-28T07:09:56.438Z,97673.30
2023-06-28T07:12:23.073Z,97672.16
2023-06-28T07:14:50.064Z,97676.25
2023-06-28T07:17:17.119Z,97669.29
2023-06-28T07:19:43.748Z,97672.45
2023-06-28T07:22:10.410Z,97672.73
2023-06-28T07:24:37.079Z,97673.96
2023-06-28T07:27:04.052Z,97682.14
2023-06-28T07:29:33.142Z,97676.56
2023-06-28T07:31:59.788Z,97682.95
2023-06-28T07:34:26.435Z,97675.66
2023-06-28T07:36:53.042Z,97677.56
2023-06-28T07:39:19.710Z,97687.86
2023-06-28T07:41:46.284Z,97672.10
2023-06-28T07:44:12.835Z,97668.34
2023-06-28T07:46:39.516Z,97672.64
2023-06-28T07:49:06.099Z,97671.20
2023-06-28T07:51:32.678Z,97664.04
2023-06-28T07:53:59.351Z,97661.88
2023-06-28T07:56:25.924Z,97655.21
2023-06-28T07:58:52.612Z,97654.96
2023-06-28T08:01:19.203Z,97659.00
2023-06-28T08:03:45.996Z,97663.47
2023-06-28T08:06:12.681Z,97662.79
2023-06-28T08:08:39.405Z,97652.42
2023-06-28T08:11:06.244Z,97655.20
2023-06-28T08:13:33.162Z,97648.46
2023-06-28T08:15:59.929Z,97649.39
2023-06-28T08:18:27.066Z,97654.60
2023-06-28T08:20:53.892Z,97655.23
2023-06-28T08:23:21.866Z,97656.45
2023-06-28T08:25:48.507Z,97656.12
2023-06-28T08:28:15.182Z,97659.98
2023-06-28T08:30:41.823Z,97640.31
2023-06-28T08:33:08.600Z,97642.48
2023-06-28T08:35:35.305Z,97644.84
2023-06-28T08:38:02.420Z,97641.49
2023-06-28T08:40:30.471Z,97643.20
2023-06-28T08:43:01.012Z,97635.71
2023-06-28T08:45:31.116Z,97625.02
2023-06-28T08:47:59.093Z,97620.20
2023-06-28T08:50:26.524Z,97626.63
2023-06-28T08:52:53.912Z,97626.42
2023-06-28T08:55:21.976Z,97617.88
2023-06-28T08:57:48.628Z,97617.77
2023-06-28T09:00:15.636Z,97619.34
2023-06-28T09:02:45.983Z,97632.41
2023-06-28T09:05:13.144Z,97623.39
2023-06-28T09:07:41.311Z,97620.50
2023-06-28T09:10:11.305Z,97625.52
2023-06-28T09:12:39.517Z,97614.01
2023-06-28T09:15:07.139Z,97617.83
2023-06-28T09:17:33.999Z,97621.17
2023-06-28T09:20:08.293Z,97613.02
2023-06-28T09:22:34.889Z,97619.42
2023-06-28T09:25:05.876Z,97614.90
2023-06-28T09:27:32.441Z,97615.73
2023-06-28T09:30:21.878Z,97619.73
2023-06-28T09:32:52.615Z,97616.06
2023-06-28T09:35:20.670Z,97614.92
2023-06-28T09:37:51.232Z,97612.04
2023-06-28T09:40:18.572Z,97614.83
2023-06-28T09:42:47.418Z,97610.34
2023-06-28T09:45:38.096Z,97603.52
2023-06-28T09:48:05.384Z,97611.48
2023-06-28T09:50:41.903Z,97602.13
2023-06-28T09:53:14.548Z,97607.98
2023-06-28T09:55:43.348Z,97608.65
2023-06-28T09:58:15.403Z,97617.20
2023-06-28T10:00:43.638Z,97633.70
2023-06-28T10:03:12.367Z,97630.61
2023-06-28T10:05:42.411Z,97619.30
2023-06-28T10:08:14.557Z,97614.70
2023-06-28T10:10:43.137Z,97615.36
2023-06-28T10:13:12.895Z,97612.44
2023-06-28T10:15:48.837Z,97608.22
2023-06-28T10:18:16.584Z,97614.30
2023-06-28T10:20:43.826Z,97614.27
2023-06-28T10:23:13.763Z,97621.96
2023-06-28T10:25:42.192Z,97619.27
2023-06-28T10:28:09.982Z,97622.14
2023-06-28T10:30:39.749Z,97625.42
2023-06-28T10:33:07.307Z,97625.59
2023-06-28T10:35:34.796Z,97622.57
2023-06-28T10:38:01.615Z,97623.52
2023-06-28T10:40:28.720Z,97618.80
2023-06-28T10:42:55.438Z,97613.15
2023-06-28T10:45:35.621Z,97612.89
2023-06-28T10:48:03.478Z,97612.09
2023-06-28T10:50:41.646Z,97609.40
2023-06-28T10:53:20.279Z,97607.19
2023-06-28T10:56:15.082Z,97606.27
2023-06-28T10:58:42.926Z,97606.91
2023-06-28T11:01:14.022Z,97604.52
2023-06-28T11:03:44.981Z,97604.88
2023-06-28T11:06:13.358Z,97605.21
2023-06-28T11:08:43.782Z,97600.84
2023-06-28T11:11:31.727Z,97598.94
2023-06-28T11:13:58.301Z,97597.73
2023-06-28T11:16:25.515Z,97590.75
2023-06-28T11:18:53.311Z,97585.31
2023-06-28T11:21:25.170Z,97593.69
2023-06-28T11:23:56.777Z,97591.00
2023-06-28T11:26:42.787Z,97589.39
2023-06-28T11:29:17.480Z,97603.42
2023-06-28T11:31:57.306Z,97619.09
2023-06-28T11:34:25.856Z,97637.94
2023-06-28T11:36:54.195Z,97634.77
2023-06-28T11:39:22.862Z,97632.37
2023-06-28T11:41:49.978Z,97639.26
2023-06-28T11:44:16.746Z,97644.16
2023-06-28T11:46:46.890Z,97634.17
2023-06-28T11:49:17.117Z,97636.91
2023-06-28T11:51:44.686Z,97633.08
2023-06-28T11:54:12.669Z,97631.67
2023-06-28T11:56:39.537Z,97627.41
2023-06-28T11:59:16.453Z,97626.77
2023-06-28T12:01:44.642Z,97625.11
2023-06-28T12:04:22.499Z,97618.71
2023-06-28T12:06:52.765Z,97616.95
2023-06-28T12:09:22.225Z,97617.85
2023-06-28T12:12:03.913Z,97612.31
2023-06-28T12:14:49.461Z,97609.63
2023-06-28T12:17:17.762Z,97606.44
2023-06-28T12:19:44.606Z,97604.83
2023-06-28T12:22:11.326Z,97601.86
2023-06-28T12:24:38.515Z,97599.29
2023-06-28T12:27:07.191Z,97594.91
2023-06-28T12:29:36.088Z,97593.40
2023-06-28T12:32:08.355Z,97584.10
2023-06-28T12:34:38.134Z,97590.45
2023-06-28T12:37:11.036Z,97583.94
2023-06-28T12:39:40.334Z,97589.52
2023-06-28T12:42:11.123Z,97581.86
2023-06-28T12:44:51.999Z,97578.12
2023-06-28T12:47:19.444Z,97575.38
2023-06-28T12:49:47.504Z,97571.72
2023-06-28T12:52:14.624Z,97582.62
2023-06-28T12:54:41.778Z,97581.49
2023-06-28T12:57:09.045Z,97581.01
2023-06-28T12:59:36.705Z,97584.02
2023-06-28T13:02:03.723Z,97584.69
2023-06-28T13:04:35.336Z,97575.29
2023-06-28T13:07:04.383Z,97575.55
2023-06-28T13:09:31.629Z,97573.62
2023-06-28T13:11:58.516Z,97575.55
2023-06-28T13:14:25.131Z,97576.06
2023-06-28T13:16:52.265Z,97566.31
2023-06-28T13:19:19.408Z,97578.14
2023-06-28T13:21:46.825Z,97578.02
2023-06-28T13:24:13.489Z,97580.40
2023-06-28T13:26:40.313Z,97585.17
2023-06-28T13:29:06.926Z,97588.38
2023-06-28T13:31:33.554Z,97591.89
2023-06-28T13:34:00.246Z,97597.38
2023-06-28T13:36:27.266Z,97607.45
2023-06-28T13:38:54.608Z,97603.19
2023-06-28T13:41:21.300Z,97604.33
2023-06-28T13:43:47.934Z,97605.86
2023-06-28T13:46:15.780Z,97615.40
2023-06-28T13:48:42.397Z,97605.30
2023-06-28T13:51:08.966Z,97616.77
2023-06-28T13:53:35.571Z,97609.55
2023-06-28T13:56:02.219Z,97617.56
2023-06-28T13:58:28.985Z,97633.94
2023-06-28T14:00:57.350Z,97630.10
2023-06-28T14:03:24.881Z,97638.01
2023-06-28T14:05:52.302Z,97649.68
2023-06-28T14:08:19.191Z,97661.30
2023-06-28T14:10:47.165Z,97671.10
2023-06-28T14:13:15.334Z,97670.08
2023-06-28T14:15:43.185Z,97679.61
2023-06-28T14:18:11.269Z,97687.89
2023-06-28T14:20:37.871Z,97685.96
2023-06-28T14:23:04.501Z,97684.01
2023-06-28T14:25:31.173Z,97689.05
2023-06-28T14:27:58.719Z,97683.05
2023-06-28T14:30:25.472Z,97682.14
2023-06-28T14:32:53.052Z,97685.34
2023-06-28T14:35:22.043Z,97682.68
2023-06-28T14:37:50.222Z,97680.46
2023-06-28T14:40:17.296Z,97678.70
2023-06-28T14:42:43.911Z,97686.58
2023-06-28T14:45:13.972Z,97679.71
2023-06-28T14:47:42.580Z,97689.31
2023-06-28T14:50:10.540Z,97690.84
2023-06-28T14:52:38.326Z,97685.78
2023-06-28T14:55:05.708Z,97693.23
2023-06-28T14:57:32.409Z,97694.86
2023-06-28T14:59:59.046Z,97695.13
2023-06-28T15:02:25.696Z,97700.10
2023-06-28T15:04:52.590Z,97696.41
2023-06-28T15:07:19.468Z,97701.08
2023-06-28T15:09:46.277Z,97704.36
2023-06-28T15:12:13.302Z,97702.94
2023-06-28T15:14:40.772Z,97704.90
2023-06-28T15:17:07.997Z,97705.48
2023-06-28T15:19:34.835Z,97703.86
2023-06-28T15:22:01.428Z,97703.69
2023-06-28T15:24:28.109Z,97711.16
2023-06-28T15:26:57.319Z,97705.59
2023-06-28T15:29:26.215Z,97704.68
2023-06-28T15:31:53.612Z,97705.78
2023-06-28T15:34:20.300Z,97705.76
2023-06-28T15:36:47.011Z,97704.16
2023-06-28T15:39:13.691Z,97709.91
2023-06-28T15:41:41.690Z,97707.59
2023-06-28T15:44:09.424Z,97710.55
2023-06-28T15:46:36.092Z,97713.14
2023-06-28T15:49:04.124Z,97713.70
2023-06-28T15:51:32.079Z,97707.69
2023-06-28T15:53:58.685Z,97714.50
2023-06-28T15:56:25.316Z,97718.07
2023-06-28T15:58:52.053Z,97715.45
2023-06-28T16:01:19.629Z,97718.06
2023-06-28T16:03:46.865Z,97727.25
2023-06-28T16:06:13.723Z,97725.95
2023-06-28T16:08:40.676Z,97729.17
2023-06-28T16:11:07.325Z,97724.33
2023-06-28T16:13:34.042Z,97729.91
2023-06-28T16:16:03.436Z,97721.79
2023-06-28T16:18:30.566Z,97721.05
2023-06-28T16:20:57.921Z,97724.96
2023-06-28T16:23:25.311Z,97724.05
2023-06-28T16:25:51.983Z,97724.56
2023-06-28T16:28:18.777Z,97726.73
2023-06-28T16:30:45.786Z,97723.46
2023-06-28T16:33:12.564Z,97722.86
2023-06-28T16:35:45.129Z,97724.35
2023-06-28T16:38:14.385Z,97723.39
2023-06-28T16:40:41.259Z,97724.63
2023-06-28T16:43:08.820Z,97727.66
2023-06-28T16:45:35.577Z,97729.60
2023-06-28T16:48:02.553Z,97726.44
2023-06-28T16:50:29.427Z,97734.29
2023-06-28T16:52:56.144Z,97735.80
2023-06-28T16:55:22.792Z,97731.94
2023-06-28T16:57:50.930Z,97732.54
2023-06-28T17:00:18.013Z,97735.00
2023-06-28T17:02:48.848Z,97731.51
2023-06-28T17:05:16.087Z,97732.63
2023-06-28T17:07:42.923Z,97735.71
2023-06-28T17:10:12.475Z,97735.16
2023-06-28T17:12:43.608Z,97735.45
2023-06-28T17:15:11.890Z,97741.14
2023-06-28T17:17:39.370Z,97736.46
2023-06-28T17:20:07.357Z,97726.04
2023-06-28T17:22:35.783Z,97724.98
2023-06-28T17:25:05.312Z,97722.02
2023-06-28T17:27:33.051Z,97725.89
2023-06-28T17:29:59.805Z,97725.58
2023-06-28T17:32:27.121Z,97723.18
2023-06-28T17:34:54.008Z,97724.05
2023-06-28T17:37:20.559Z,97728.31
2023-06-28T17:39:47.134Z,97730.10
2023-06-28T17:42:13.782Z,97726.02
2023-06-28T17:44:40.399Z,97725.65
2023-06-28T17:47:07.135Z,97727.94
2023-06-28T17:49:33.756Z,97729.66
2023-06-28T17:52:00.326Z,97724.51
2023-06-28T17:54:28.737Z,97724.91
2023-06-28T17:56:55.320Z,97720.34
2023-06-28T17:59:21.916Z,97719.89
2023-06-28T18:01:48.563Z,97722.81
2023-06-28T18:04:15.498Z,97722.52
2023-06-28T18:06:42.479Z,97720.84
2023-06-28T18:09:09.106Z,97725.71
2023-06-28T18:11:35.818Z,97727.91
2023-06-28T18:14:02.669Z,97729.09
2023-06-28T18:16:29.314Z,97725.00
2023-06-28T18:18:56.025Z,97727.40
2023-06-28T18:21:22.575Z,97727.44
2023-06-28T18:23:49.181Z,97727.30
2023-06-28T18:26:16.885Z,97726.89
2023-06-28T18:28:43.807Z,97723.57
2023-06-28T18:31:10.447Z,97722.05
2023-06-28T18:33:37.087Z,97722.99
2023-06-28T18:36:03.865Z,97724.46
2023-06-28T18:38:30.626Z,97725.74
2023-06-28T18:40:58.221Z,97726.64
2023-06-28T18:43:24.911Z,97731.18
2023-06-28T18:45:51.632Z,97730.77
2023-06-28T18:48:18.307Z,97730.96
2023-06-28T18:50:53.579Z,97728.70
2023-06-28T18:53:20.839Z,97728.16
2023-06-28T18:55:48.279Z,97728.89
2023-06-28T18:58:33.770Z,97728.77
2023-06-28T19:01:00.690Z,97728.95
2023-06-28T19:03:27.888Z,97729.88
2023-06-28T19:05:55.245Z,97730.71
2023-06-28T19:08:22.669Z,97731.46
2023-06-28T19:10:50.249Z,97734.93
2023-06-28T19:13:20.877Z,97735.66
2023-06-28T19:15:48.065Z,97738.02
2023-06-28T19:18:15.190Z,97739.64
2023-06-28T19:20:42.215Z,97739.89
2023-06-28T19:23:09.650Z,97745.78
2023-06-28T19:25:36.623Z,97747.77
2023-06-28T19:28:03.661Z,97744.19
2023-06-28T19:30:30.260Z,97748.05
2023-06-28T19:32:57.080Z,97745.90
2023-06-28T19:35:24.514Z,97747.23
2023-06-28T19:37:52.169Z,97749.30
2023-06-28T19:40:19.029Z,97746.51
2023-06-28T19:42:45.708Z,97746.45
2023-06-28T19:45:12.430Z,97749.40
2023-06-28T19:47:39.287Z,97746.45
2023-06-28T19:50:07.253Z,97751.31
2023-06-28T19:52:34.507Z,97752.10
2023-06-28T19:55:01.402Z,97753.70
2023-06-28T19:57:28.085Z,97750.59
2023-06-28T19:59:54.655Z,97757.61
2023-06-28T20:02:23.500Z,97750.08
2023-06-28T20:04:50.410Z,97753.42
2023-06-28T20:07:17.557Z,97756.92
2023-06-28T20:09:44.424Z,97755.61
2023-06-28T20:12:11.819Z,97757.33
2023-06-28T20:14:38.877Z,97754.66
2023-06-28T20:17:05.635Z,97758.63
2023-06-28T20:19:32.210Z,97756.73
2023-06-28T20:21:58.811Z,97758.05
2023-06-28T20:24:25.441Z,97756.13
2023-06-28T20:26:52.295Z,97757.52
2023-06-28T20:29:18.904Z,97759.98
2023-06-28T20:31:45.640Z,97756.63
2023-06-28T20:34:12.428Z,97758.99
2023-06-28T20:36:39.004Z,97756.04
2023-06-28T20:39:05.644Z,97754.16
2023-06-28T20:41:32.225Z,97754.77
2023-06-28T20:43:58.868Z,97754.50
2023-06-28T20:46:25.508Z,97756.27
2023-06-28T20:48:52.239Z,97754.05
2023-06-28T20:51:20.593Z,97752.12
2023-06-28T20:53:47.313Z,97752.81
2023-06-28T20:56:13.973Z,97754.64
2023-06-28T20:58:41.932Z,97757.40
2023-06-28T21:01:09.329Z,97755.08
2023-06-28T21:03:36.267Z,97758.58
2023-06-28T21:06:03.024Z,97760.84
2023-06-28T21:08:29.706Z,97762.91
2023-06-28T21:10:56.353Z,97760.61
2023-06-28T21:13:22.999Z,97757.98
2023-06-28T21:15:50.005Z,97760.58
2023-06-28T21:18:17.111Z,97757.12
2023-06-28T21:20:43.868Z,97759.44
2023-06-28T21:23:10.506Z,97759.50
2023-06-28T21:25:41.151Z,97752.40
2023-06-28T21:28:08.322Z,97758.67
2023-06-28T21:30:37.319Z,97757.19
2023-06-28T21:33:04.591Z,97757.20
2023-06-28T21:35:31.819Z,97758.33
2023-06-28T21:37:58.456Z,97757.25
2023-06-28T21:40:25.093Z,97760.66
2023-06-28T21:42:51.757Z,97762.05
2023-06-28T21:45:18.400Z,97759.81
2023-06-28T21:47:45.010Z,97756.70
2023-06-28T21:50:11.661Z,97756.52
2023-06-28T21:52:38.291Z,97762.39
2023-06-28T21:55:05.432Z,97760.13
2023-06-28T21:57:32.086Z,97758.03
2023-06-28T21:59:59.930Z,97763.64
2023-06-28T22:02:26.760Z,97761.30
2023-06-28T22:04:53.648Z,97758.50
2023-06-28T22:07:21.825Z,97757.36
2023-06-28T22:09:54.028Z,97751.54
2023-06-28T22:12:21.371Z,97753.18
2023-06-28T22:14:48.114Z,97755.79
2023-06-28T22:17:15.089Z,97757.13
2023-06-28T22:19:42.013Z,97754.77
2023-06-28T22:22:09.981Z,97754.38
2023-06-28T22:24:38.056Z,97750.65
2023-06-28T22:27:04.824Z,97753.39
2023-06-28T22:29:31.532Z,97758.39
2023-06-28T22:31:58.262Z,97759.46
2023-06-28T22:34:24.999Z,97758.44
2023-06-28T22:36:51.776Z,97758.76
2023-06-28T22:39:19.105Z,97759.13
2023-06-28T22:41:45.850Z,97764.01
2023-06-28T22:44:13.020Z,97762.90
2023-06-28T22:46:39.761Z,97763.56
2023-06-28T22:49:06.452Z,97766.80
2023-06-28T22:51:39.658Z,97766.76
2023-06-28T22:54:07.664Z,97767.86
2023-06-28T22:56:36.215Z,97770.34
2023-06-28T22:59:04.491Z,97768.28
2023-06-28T23:01:31.534Z,97774.28
2023-06-28T23:03:58.770Z,97769.45
2023-06-28T23:06:28.460Z,97774.32
2023-06-28T23:08:55.957Z,97776.52
2023-06-28T23:11:27.709Z,97778.96
2023-06-28T23:13:55.036Z,97775.31
2023-06-28T23:16:23.632Z,97777.25
2023-06-28T23:18:53.034Z,97773.60
2023-06-28T23:21:22.241Z,97771.14
2023-06-28T23:23:49.206Z,97777.34
2023-06-28T23:26:18.429Z,97775.52
2023-06-28T23:28:45.624Z,97777.24
2023-06-28T23:31:14.036Z,97777.39
2023-06-28T23:33:42.498Z,97780.48
2023-06-28T23:36:10.455Z,97782.96
2023-06-28T23:38:39.570Z,97785.64
2023-06-28T23:41:07.518Z,97783.33
2023-06-28T23:43:35.071Z,97789.20
2023-06-28T23:46:03.893Z,97791.55
2023-06-28T23:48:35.331Z,97791.50
2023-06-28T23:51:06.877Z,97792.83
2023-06-28T23:53:42.978Z,97793.53
2023-06-28T23:56:11.206Z,97796.30
2023-06-28T23:58:40.398Z,97797.48
